createdAt,value
2023-01-26T00:01:13.322Z,15.18
2023-01-26T00:03:40.375Z,21.90
2023-01-26T00:06:08.854Z,21.75
2023-01-26T00:08:37.461Z,11.93
2023-01-26T00:11:05.555Z,12.57
2023-01-26T00:13:33.165Z,19.65
2023-01-26T00:16:00.052Z,18.23
2023-01-26T00:18:26.997Z,20.73
2023-01-26T00:21:01.578Z,22.05
2023-01-26T00:23:30.400Z,20.25
2023-01-26T00:25:57.417Z,21.60
2023-01-26T00:28:24.031Z,28.90
2023-01-26T00:30:50.723Z,20.80
2023-01-26T00:33:17.353Z,21.02
2023-01-26T00:35:44.554Z,29.73
2023-01-26T00:38:14.717Z,19.98
2023-01-26T00:40:41.347Z,26.92
2023-01-26T00:43:07.974Z,23.80
2023-01-26T00:45:35.472Z,19.23
2023-01-26T00:48:02.185Z,18.52
2023-01-26T00:50:28.781Z,18.95
2023-01-26T00:52:55.379Z,19.65
2023-01-26T00:55:22.162Z,22.98
2023-01-26T00:57:50.309Z,18.80
2023-01-26T01:00:17.807Z,25.83
2023-01-26T01:02:44.874Z,18.58
2023-01-26T01:05:11.729Z,28.38
2023-01-26T01:07:38.393Z,18.27
2023-01-26T01:10:05.248Z,20.10
2023-01-26T01:12:31.851Z,17.00
2023-01-26T01:14:58.422Z,20.23
2023-01-26T01:17:25.329Z,25.92
2023-01-26T01:19:51.987Z,17.92
2023-01-26T01:22:18.654Z,24.08
2023-01-26T01:24:45.234Z,19.23
2023-01-26T01:27:11.819Z,22.63
2023-01-26T01:29:38.524Z,19.63
2023-01-26T01:32:05.289Z,20.40
2023-01-26T01:34:31.896Z,18.55
2023-01-26T01:36:58.468Z,20.33
2023-01-26T01:39:25.134Z,20.52
2023-01-26T01:41:51.790Z,20.98
2023-01-26T01:44:20.985Z,21.38
2023-01-26T01:46:58.387Z,20.00
2023-01-26T01:49:42.759Z,29.52
2023-01-26T01:52:26.121Z,20.67
2023-01-26T01:55:01.904Z,19.38
2023-01-26T01:57:44.828Z,21.05
2023-01-26T02:00:15.027Z,19.42
2023-01-26T02:02:43.982Z,29.92
2023-01-26T02:05:24.484Z,20.23
2023-01-26T02:07:51.594Z,17.85
2023-01-26T02:10:20.392Z,16.27
2023-01-26T02:12:50.717Z,27.15
2023-01-26T02:15:17.389Z,22.60
2023-01-26T02:17:44.582Z,19.65
2023-01-26T02:20:28.444Z,20.17
2023-01-26T02:23:15.505Z,25.83
2023-01-26T02:25:54.014Z,26.33
2023-01-26T02:28:24.584Z,17.40
2023-01-26T02:30:52.912Z,18.38
2023-01-26T02:33:21.333Z,19.15
2023-01-26T02:35:47.989Z,21.35
2023-01-26T02:38:15.160Z,17.98
2023-01-26T02:40:57.295Z,19.88
2023-01-26T02:43:27.550Z,17.70
2023-01-26T02:45:55.197Z,16.90
2023-01-26T02:49:00.720Z,17.05
2023-01-26T02:51:27.285Z,19.05
2023-01-26T02:54:34.254Z,17.75
2023-01-26T02:57:01.442Z,17.08
2023-01-26T02:59:28.095Z,22.95
2023-01-26T03:01:57.340Z,18.52
2023-01-26T03:04:24.664Z,19.02
2023-01-26T03:06:51.352Z,28.27
2023-01-26T03:09:17.974Z,26.00
2023-01-26T03:11:44.734Z,21.10
2023-01-26T03:14:15.940Z,20.70
2023-01-26T03:16:43.220Z,26.80
2023-01-26T03:19:31.676Z,26.58
2023-01-26T03:22:17.391Z,15.90
2023-01-26T03:25:02.747Z,28.20
2023-01-26T03:27:37.073Z,27.45
2023-01-26T03:30:04.082Z,28.05
2023-01-26T03:32:30.820Z,20.33
2023-01-26T03:34:57.395Z,30.80
2023-01-26T03:37:23.962Z,20.90
2023-01-26T03:40:10.369Z,23.13
2023-01-26T03:42:56.228Z,28.50
2023-01-26T03:45:41.454Z,19.10
2023-01-26T03:48:29.749Z,28.77
2023-01-26T03:51:15.331Z,28.52
2023-01-26T03:54:02.158Z,26.88
2023-01-26T03:56:32.512Z,27.20
2023-01-26T03:59:12.205Z,29.00
2023-01-26T04:01:41.174Z,28.70
2023-01-26T04:04:27.222Z,25.60
2023-01-26T04:07:12.484Z,18.63
2023-01-26T04:09:42.042Z,21.83
2023-01-26T04:12:10.237Z,28.02
2023-01-26T04:14:55.507Z,27.70
2023-01-26T04:17:40.840Z,25.98
2023-01-26T04:20:26.688Z,18.40
2023-01-26T04:22:53.367Z,20.77
2023-01-26T04:25:21.630Z,22.38
2023-01-26T04:27:48.416Z,19.50
2023-01-26T04:30:16.889Z,25.27
2023-01-26T04:32:44.017Z,29.02
2023-01-26T04:35:10.975Z,17.75
2023-01-26T04:37:38.194Z,24.65
2023-01-26T04:40:06.443Z,20.42
2023-01-26T04:42:33.042Z,22.65
2023-01-26T04:44:59.630Z,19.40
2023-01-26T04:47:29.076Z,23.08
2023-01-26T04:49:55.978Z,24.38
2023-01-26T04:52:22.548Z,21.15
2023-01-26T04:54:49.175Z,18.58
2023-01-26T04:57:15.724Z,20.67
2023-01-26T04:59:42.316Z,21.40
2023-01-26T05:02:09.541Z,21.58
2023-01-26T05:04:36.362Z,22.50
2023-01-26T05:07:03.051Z,24.88
2023-01-26T05:09:29.600Z,17.48
2023-01-26T05:12:16.156Z,23.92
2023-01-26T05:14:42.815Z,22.75
2023-01-26T05:17:09.421Z,24.55
2023-01-26T05:19:36.021Z,16.52
2023-01-26T05:22:02.657Z,24.02
2023-01-26T05:24:29.220Z,19.10
2023-01-26T05:27:15.795Z,22.23
2023-01-26T05:29:42.466Z,22.00
2023-01-26T05:32:09.111Z,21.60
2023-01-26T05:34:35.730Z,23.75
2023-01-26T05:37:02.369Z,22.10
2023-01-26T05:39:28.958Z,23.17
2023-01-26T05:41:56.804Z,17.40
2023-01-26T05:44:27.114Z,21.90
2023-01-26T05:46:53.742Z,18.35
2023-01-26T05:49:20.641Z,22.77
2023-01-26T05:51:47.326Z,20.92
2023-01-26T05:54:13.933Z,15.63
2023-01-26T05:56:40.618Z,18.60
2023-01-26T05:59:07.253Z,17.25
2023-01-26T06:01:33.874Z,21.45
2023-01-26T06:04:00.572Z,16.17
2023-01-26T06:06:27.233Z,24.27
2023-01-26T06:08:53.837Z,16.90
2023-01-26T06:11:20.417Z,16.15
2023-01-26T06:13:48.591Z,18.92
2023-01-26T06:16:15.581Z,16.42
2023-01-26T06:18:42.185Z,16.05
2023-01-26T06:21:08.795Z,17.90
2023-01-26T06:23:35.363Z,16.58
2023-01-26T06:26:02.422Z,15.57
2023-01-26T06:28:30.592Z,16.33
2023-01-26T06:31:05.106Z,14.68
2023-01-26T06:33:34.764Z,16.33
2023-01-26T06:36:06.408Z,20.98
2023-01-26T06:38:33.261Z,17.00
2023-01-26T06:41:02.877Z,17.10
2023-01-26T06:43:30.613Z,17.00
2023-01-26T06:45:58.230Z,16.40
2023-01-26T06:48:29.787Z,18.50
2023-01-26T06:50:58.589Z,21.30
2023-01-26T06:53:32.961Z,15.43
2023-01-26T06:55:59.717Z,15.35
2023-01-26T06:58:26.356Z,15.93
2023-01-26T07:00:53.004Z,14.45
2023-01-26T07:03:19.641Z,15.25
2023-01-26T07:05:46.266Z,16.50
2023-01-26T07:08:12.977Z,14.88
2023-01-26T07:10:39.706Z,13.38
2023-01-26T07:13:06.425Z,14.15
2023-01-26T07:15:33.390Z,14.30
2023-01-26T07:18:00.396Z,14.63
2023-01-26T07:20:27.249Z,19.25
2023-01-26T07:22:53.943Z,15.32
2023-01-26T07:25:20.605Z,14.23
2023-01-26T07:27:47.190Z,17.10
2023-01-26T07:30:16.916Z,18.48
2023-01-26T07:32:43.532Z,17.35
2023-01-26T07:35:10.178Z,13.77
2023-01-26T07:37:36.757Z,16.25
2023-01-26T07:40:03.724Z,16.48
2023-01-26T07:42:31.021Z,17.92
2023-01-26T07:44:57.751Z,13.35
2023-01-26T07:47:24.436Z,13.07
2023-01-26T07:49:51.219Z,13.50
2023-01-26T07:52:17.845Z,13.35
2023-01-26T07:54:44.567Z,14.45
2023-01-26T07:57:12.515Z,13.27
2023-01-26T07:59:39.110Z,14.25
2023-01-26T08:02:05.900Z,14.38
2023-01-26T08:04:32.499Z,19.38
2023-01-26T08:06:59.162Z,17.30
2023-01-26T08:09:26.435Z,16.17
2023-01-26T08:11:53.145Z,10.50
2023-01-26T08:14:19.737Z,16.90
2023-01-26T08:16:46.443Z,17.52
2023-01-26T08:19:13.115Z,14.18
2023-01-26T08:21:39.739Z,17.88
2023-01-26T08:24:07.065Z,18.70
2023-01-26T08:26:33.670Z,17.83
2023-01-26T08:29:00.580Z,19.05
2023-01-26T08:31:28.189Z,19.73
2023-01-26T08:33:56.324Z,18.33
2023-01-26T08:36:23.379Z,16.92
2023-01-26T08:38:51.388Z,15.07
2023-01-26T08:41:18.386Z,14.48
2023-01-26T08:43:45.160Z,16.85
2023-01-26T08:46:11.839Z,17.55
2023-01-26T08:48:38.765Z,18.42
2023-01-26T08:51:07.284Z,15.98
2023-01-26T08:53:35.744Z,18.67
2023-01-26T08:56:03.777Z,19.92
2023-01-26T08:58:30.481Z,19.73
2023-01-26T09:00:57.467Z,19.33
2023-01-26T09:03:24.295Z,16.05
2023-01-26T09:05:50.890Z,19.98
2023-01-26T09:08:17.540Z,17.90
2023-01-26T09:10:45.127Z,18.00
2023-01-26T09:13:11.893Z,19.02
2023-01-26T09:15:38.759Z,19.13
2023-01-26T09:18:05.357Z,12.55
2023-01-26T09:20:31.933Z,17.00
2023-01-26T09:22:58.601Z,17.52
2023-01-26T09:25:25.188Z,15.07
2023-01-26T09:27:51.769Z,12.88
2023-01-26T09:30:18.510Z,13.65
2023-01-26T09:32:45.148Z,13.93
2023-01-26T09:35:14.766Z,15.85
2023-01-26T09:37:43.678Z,15.88
2023-01-26T09:40:19.657Z,16.02
2023-01-26T09:43:12.031Z,16.77
2023-01-26T09:46:02.405Z,17.40
2023-01-26T09:48:43.604Z,14.80
2023-01-26T09:51:19.668Z,16.08
2023-01-26T09:53:57.535Z,15.25
2023-01-26T09:56:28.508Z,15.82
2023-01-26T09:59:06.486Z,14.05
2023-01-26T10:01:39.057Z,13.73
2023-01-26T10:04:36.340Z,12.38
2023-01-26T10:07:13.965Z,10.82
2023-01-26T10:09:46.013Z,11.23
2023-01-26T10:12:28.401Z,11.10
2023-01-26T10:15:31.875Z,9.27
2023-01-26T10:18:04.500Z,13.57
2023-01-26T10:20:32.985Z,11.15
2023-01-26T10:23:07.297Z,12.13
2023-01-26T10:25:39.973Z,12.65
2023-01-26T10:28:29.955Z,11.20
2023-01-26T10:30:57.588Z,10.75
2023-01-26T10:33:37.883Z,11.40
2023-01-26T10:36:08.169Z,10.35
2023-01-26T10:38:37.855Z,8.27
2023-01-26T10:41:16.925Z,10.25
2023-01-26T10:43:53.273Z,10.48
2023-01-26T10:46:41.081Z,9.65
2023-01-26T10:49:16.890Z,7.85
2023-01-26T10:52:04.735Z,8.45
2023-01-26T10:54:33.978Z,8.18
2023-01-26T10:57:14.512Z,8.85
2023-01-26T11:00:00.993Z,7.07
2023-01-26T11:02:29.997Z,7.45
2023-01-26T11:05:08.894Z,7.70
2023-01-26T11:07:38.465Z,7.88
2023-01-26T11:10:17.401Z,8.00
2023-01-26T11:12:44.061Z,7.07
2023-01-26T11:15:20.134Z,7.93
2023-01-26T11:18:12.883Z,8.02
2023-01-26T11:20:51.251Z,7.47
2023-01-26T11:23:35.856Z,7.38
2023-01-26T11:26:32.807Z,7.90
2023-01-26T11:29:12.774Z,7.45
2023-01-26T11:31:45.378Z,7.22
2023-01-26T11:34:21.267Z,8.00
2023-01-26T11:36:52.969Z,8.18
2023-01-26T11:39:44.226Z,7.57
2023-01-26T11:42:31.336Z,7.95
2023-01-26T11:45:19.939Z,7.95
2023-01-26T11:48:07.572Z,7.30
2023-01-26T11:51:05.598Z,8.45
2023-01-26T11:53:55.177Z,8.95
2023-01-26T11:56:30.640Z,8.45
2023-01-26T11:59:03.270Z,7.75
2023-01-26T12:01:43.884Z,8.00
2023-01-26T12:04:19.716Z,8.85
2023-01-26T12:06:55.421Z,8.40
2023-01-26T12:09:32.985Z,8.40
2023-01-26T12:12:27.549Z,8.10
2023-01-26T12:15:11.896Z,7.53
2023-01-26T12:18:00.089Z,7.18
2023-01-26T12:20:36.317Z,8.10
2023-01-26T12:23:08.982Z,8.63
2023-01-26T12:25:46.715Z,7.70
2023-01-26T12:28:34.677Z,7.07
2023-01-26T12:31:32.340Z,8.60
2023-01-26T12:33:59.752Z,7.40
2023-01-26T12:36:51.311Z,9.55
2023-01-26T12:39:37.866Z,8.95
2023-01-26T12:42:25.273Z,9.18
2023-01-26T12:45:00.129Z,8.30
2023-01-26T12:47:35.482Z,8.95
2023-01-26T12:50:24.666Z,9.55
2023-01-26T12:53:12.943Z,9.23
2023-01-26T12:55:48.780Z,8.65
2023-01-26T12:58:21.720Z,8.82
2023-01-26T13:01:05.124Z,6.95
2023-01-26T13:03:35.322Z,9.75
2023-01-26T13:06:10.772Z,8.77
2023-01-26T13:08:37.352Z,9.35
2023-01-26T13:11:06.686Z,9.35
2023-01-26T13:13:56.193Z,8.75
2023-01-26T13:16:25.563Z,9.50
2023-01-26T13:18:57.329Z,10.80
2023-01-26T13:21:29.641Z,9.52
2023-01-26T13:23:56.378Z,8.85
2023-01-26T13:26:32.214Z,10.02
2023-01-26T13:29:35.217Z,7.30
2023-01-26T13:32:13.528Z,9.52
2023-01-26T13:34:47.549Z,10.40
2023-01-26T13:37:35.482Z,11.88
2023-01-26T13:40:13.901Z,11.13
2023-01-26T13:43:00.274Z,10.82
2023-01-26T13:45:40.050Z,12.13
2023-01-26T13:48:18.499Z,10.88
2023-01-26T13:50:48.473Z,12.73
2023-01-26T13:53:38.904Z,11.65
2023-01-26T13:56:19.394Z,12.20
2023-01-26T13:58:46.297Z,12.45
2023-01-26T14:01:14.012Z,10.73
2023-01-26T14:03:40.672Z,11.73
2023-01-26T14:06:19.793Z,12.18
2023-01-26T14:08:53.140Z,7.97
2023-01-26T14:11:22.600Z,12.82
2023-01-26T14:13:53.157Z,12.35
2023-01-26T14:16:37.906Z,7.05
2023-01-26T14:19:19.302Z,9.23
2023-01-26T14:22:15.482Z,6.35
2023-01-26T14:24:43.066Z,11.45
2023-01-26T14:27:39.156Z,11.77
2023-01-26T14:30:26.260Z,11.88
2023-01-26T14:33:11.948Z,9.57
2023-01-26T14:35:38.706Z,10.52
2023-01-26T14:38:12.573Z,10.13
2023-01-26T14:40:51.276Z,4.63
2023-01-26T14:43:18.237Z,9.52
2023-01-26T14:45:52.390Z,11.48
2023-01-26T14:48:22.286Z,4.63
2023-01-26T14:50:49.231Z,5.75
2023-01-26T14:53:19.892Z,10.27
2023-01-26T14:55:48.194Z,4.55
2023-01-26T14:58:29.472Z,9.38
2023-01-26T15:00:58.792Z,7.80
2023-01-26T15:03:37.455Z,9.48
2023-01-26T15:06:21.277Z,9.23
2023-01-26T15:09:04.346Z,5.35
2023-01-26T15:11:58.932Z,11.65
2023-01-26T15:14:44.958Z,7.63
2023-01-26T15:17:36.490Z,5.65
2023-01-26T15:20:24.131Z,7.80
2023-01-26T15:22:52.855Z,5.90
2023-01-26T15:25:27.226Z,6.43
2023-01-26T15:27:59.272Z,9.38
2023-01-26T15:30:32.433Z,7.57
2023-01-26T15:32:59.984Z,6.78
2023-01-26T15:35:27.754Z,7.30
2023-01-26T15:38:11.524Z,7.32
2023-01-26T15:40:39.167Z,6.25
2023-01-26T15:43:17.034Z,4.20
2023-01-26T15:45:55.100Z,7.47
2023-01-26T15:48:22.645Z,5.60
2023-01-26T15:50:49.697Z,6.85
2023-01-26T15:53:22.056Z,6.90
2023-01-26T15:55:52.651Z,8.05
2023-01-26T15:58:19.654Z,6.68
2023-01-26T16:00:46.473Z,6.22
2023-01-26T16:03:16.239Z,7.68
2023-01-26T16:05:44.025Z,6.10
2023-01-26T16:08:10.644Z,8.60
2023-01-26T16:10:40.858Z,6.78
2023-01-26T16:13:12.339Z,8.25
2023-01-26T16:15:47.730Z,12.48
2023-01-26T16:18:14.774Z,6.60
2023-01-26T16:20:43.412Z,6.85
2023-01-26T16:23:18.225Z,6.78
2023-01-26T16:25:45.503Z,8.77
2023-01-26T16:28:12.531Z,8.43
2023-01-26T16:30:39.271Z,8.68
2023-01-26T16:33:05.857Z,8.80
2023-01-26T16:35:32.498Z,8.00
2023-01-26T16:37:59.148Z,8.05
2023-01-26T16:40:25.827Z,7.40
2023-01-26T16:42:54.090Z,7.15
2023-01-26T16:50:31.766Z,5.30
2023-01-26T16:52:58.535Z,7.55
2023-01-26T16:55:25.144Z,7.38
2023-01-26T16:57:51.705Z,7.65
2023-01-26T17:00:21.204Z,8.07
2023-01-26T17:02:50.746Z,9.85
2023-01-26T17:05:19.700Z,10.48
2023-01-26T17:07:46.725Z,10.13
2023-01-26T17:10:15.351Z,7.45
2023-01-26T17:12:42.077Z,6.43
2023-01-26T17:15:11.313Z,5.82
2023-01-26T17:17:38.284Z,6.07
2023-01-26T17:20:18.480Z,6.30
2023-01-26T17:22:45.912Z,6.18
2023-01-26T17:25:15.311Z,8.88
2023-01-26T17:27:44.637Z,6.72
2023-01-26T17:30:11.836Z,6.80
2023-01-26T17:32:38.444Z,7.97
2023-01-26T17:35:05.367Z,3.78
2023-01-26T17:37:31.961Z,9.88
2023-01-26T17:39:58.747Z,11.07
2023-01-26T17:42:25.656Z,12.20
2023-01-26T17:44:52.438Z,9.85
2023-01-26T17:47:19.059Z,9.55
2023-01-26T17:49:45.704Z,9.27
2023-01-26T17:52:14.334Z,6.88
2023-01-26T17:54:41.306Z,8.02
2023-01-26T17:57:08.369Z,8.73
2023-01-26T17:59:34.946Z,9.60
2023-01-26T18:02:01.615Z,10.10
2023-01-26T18:04:31.118Z,11.20
2023-01-26T18:06:58.017Z,10.65
2023-01-26T18:09:24.840Z,10.57
2023-01-26T18:11:51.448Z,11.38
2023-01-26T18:14:18.056Z,12.00
2023-01-26T18:16:44.688Z,9.02
2023-01-26T18:19:11.387Z,8.43
2023-01-26T18:21:38.102Z,8.38
2023-01-26T18:24:05.837Z,10.45
2023-01-26T18:26:36.973Z,7.82
2023-01-26T18:29:05.245Z,6.82
2023-01-26T18:31:37.772Z,9.40
2023-01-26T18:34:04.586Z,10.35
2023-01-26T18:36:31.881Z,6.38
2023-01-26T18:39:01.840Z,7.43
2023-01-26T18:41:32.955Z,7.82
2023-01-26T18:44:00.498Z,8.63
2023-01-26T18:46:28.490Z,9.40
2023-01-26T18:49:00.420Z,9.90
2023-01-26T18:51:29.215Z,8.30
2023-01-26T18:53:56.335Z,7.53
2023-01-26T18:56:23.225Z,11.90
2023-01-26T18:58:53.104Z,21.95
2023-01-26T19:01:22.230Z,28.80
2023-01-26T19:03:54.740Z,13.70
2023-01-26T19:06:23.658Z,11.18
2023-01-26T19:09:00.395Z,8.63
2023-01-26T19:11:32.946Z,12.30
2023-01-26T19:14:00.287Z,7.72
2023-01-26T19:16:28.767Z,8.40
2023-01-26T19:18:55.794Z,5.78
2023-01-26T19:21:24.687Z,6.47
2023-01-26T19:23:53.639Z,5.20
2023-01-26T19:26:22.606Z,7.30
2023-01-26T19:28:50.990Z,6.47
2023-01-26T19:31:19.204Z,7.45
2023-01-26T19:34:16.872Z,6.53
2023-01-26T19:36:43.710Z,5.00
2023-01-26T19:39:13.725Z,6.07
2023-01-26T19:41:41.045Z,8.02
2023-01-26T19:44:07.751Z,8.57
2023-01-26T19:46:34.379Z,7.10
2023-01-26T19:49:01.021Z,12.75
2023-01-26T19:51:29.249Z,7.53
2023-01-26T19:53:58.014Z,4.75
2023-01-26T19:56:30.609Z,5.35
2023-01-26T19:59:02.977Z,4.15
2023-01-26T20:01:30.947Z,4.10
2023-01-26T20:04:00.395Z,4.22
2023-01-26T20:06:30.511Z,3.75
2023-01-26T20:08:57.440Z,3.67
2023-01-26T20:11:29.351Z,3.65
2023-01-26T20:13:57.301Z,4.43
2023-01-26T20:16:24.774Z,3.50
2023-01-26T20:18:51.435Z,3.50
2023-01-26T20:21:18.079Z,3.35
2023-01-26T20:23:53.932Z,3.42
2023-01-26T20:26:21.380Z,3.08
2023-01-26T20:28:48.268Z,3.45
2023-01-26T20:31:18.882Z,3.55
2023-01-26T20:33:50.160Z,3.13
2023-01-26T20:36:23.885Z,2.65
2023-01-26T20:38:50.826Z,2.78
2023-01-26T20:41:21.110Z,3.90
2023-01-26T20:44:03.277Z,4.32
2023-01-26T20:46:33.087Z,3.92
2023-01-26T20:49:00.358Z,3.03
2023-01-26T20:51:30.475Z,3.88
2023-01-26T20:53:58.245Z,4.43
2023-01-26T20:56:25.723Z,3.28
2023-01-26T20:58:53.932Z,4.15
2023-01-26T21:01:21.727Z,3.83
2023-01-26T21:03:48.841Z,4.07
2023-01-26T21:06:18.848Z,2.95
2023-01-26T21:08:48.194Z,3.75
2023-01-26T21:11:16.952Z,3.03
2023-01-26T21:13:43.700Z,2.70
2023-01-26T21:16:12.987Z,3.42
2023-01-26T21:18:40.094Z,3.03
2023-01-26T21:21:08.836Z,3.17
2023-01-26T21:23:35.641Z,3.35
2023-01-26T21:26:04.757Z,2.78
2023-01-26T21:28:32.211Z,2.72
2023-01-26T21:31:11.194Z,2.65
2023-01-26T21:33:41.031Z,2.55
2023-01-26T21:36:09.312Z,3.17
2023-01-26T21:38:38.399Z,2.30
2023-01-26T21:41:35.672Z,2.30
2023-01-26T21:44:06.007Z,2.67
2023-01-26T21:46:34.029Z,2.75
2023-01-26T21:49:00.707Z,3.05
2023-01-26T21:51:46.625Z,3.60
2023-01-26T21:54:14.223Z,3.65
2023-01-26T21:56:41.155Z,2.85
2023-01-26T21:59:10.463Z,3.00
2023-01-26T22:01:42.423Z,3.00
2023-01-26T22:04:10.847Z,3.47
2023-01-26T22:06:38.053Z,3.03
2023-01-26T22:09:06.407Z,3.60
2023-01-26T22:11:33.195Z,3.10
2023-01-26T22:14:00.205Z,2.80
2023-01-26T22:16:28.040Z,2.70
2023-01-26T22:18:54.685Z,2.60
2023-01-26T22:21:21.630Z,2.65
2023-01-26T22:23:48.625Z,2.20
2023-01-26T22:26:21.591Z,2.55
2023-01-26T22:28:56.047Z,2.08
2023-01-26T22:31:26.865Z,2.33
2023-01-26T22:33:54.745Z,2.38
2023-01-26T22:36:22.295Z,2.25
2023-01-26T22:38:49.371Z,2.50
2023-01-26T22:41:25.703Z,2.28
2023-01-26T22:43:55.093Z,2.78
2023-01-26T22:46:23.965Z,2.30
2023-01-26T22:48:51.229Z,2.28
2023-01-26T22:51:20.946Z,2.42
2023-01-26T22:53:52.589Z,2.28
2023-01-26T22:56:19.841Z,2.30
2023-01-26T22:58:58.080Z,2.15
2023-01-26T23:01:27.686Z,2.53
2023-01-26T23:03:55.670Z,2.30
2023-01-26T23:06:22.725Z,1.88
2023-01-26T23:08:50.133Z,2.25
2023-01-26T23:11:28.158Z,2.63
2023-01-26T23:13:57.115Z,2.10
2023-01-26T23:16:24.496Z,2.92
2023-01-26T23:18:56.022Z,1.90
2023-01-26T23:21:23.124Z,2.10
2023-01-26T23:23:49.809Z,2.35
2023-01-26T23:33:45.399Z,1.95
2023-01-26T23:36:13.162Z,1.92
2023-01-26T23:38:39.794Z,1.95
2023-01-26T23:41:08.316Z,1.88
2023-01-26T23:43:34.903Z,2.00
2023-01-26T23:46:01.584Z,2.08
2023-01-26T23:48:28.197Z,2.00
2023-01-26T23:50:59.899Z,1.80
2023-01-26T23:53:27.787Z,1.90
2023-01-26T23:55:54.935Z,1.92
2023-01-26T23:58:21.532Z,1.95
